Vaiden, Mississippi
Current Conditions -  °F | °C
As of 8:53 AM on Wednesday 26 Nov 2014 (Local Time) from KGWO Reporting Station
Clear Clear  
Wind Chill: 39°   Ceiling: Unl
Heat Index: 44°   Visibility: 10mi
Dew Point: 32°   Wind: 9mph
Humidity: 63%   Direction: 180°S
Pressure: 30.18"   Gusts: NA
Location:  33.33°N, 89.74°W
Report Text: KGWO 261453Z AUTO 18008KT 10SM CLR 07/00 A3018 RMK AO2 SLP221 T00670000 51003 TSNO
Loading
Personal Weather Stations






























Interactive Weather Map New forecast layout! Learn more

10-Day Weather Forecast

Advertisements
Track Severe Weather on mobile